sensor_id;sensor_type;location;lat;lon;timestamp;temperature;humidity
71117;SHT31;58775;46.992;9.518;2024-03-17T00:00:06;8.72;95.75
71117;SHT31;58775;46.992;9.518;2024-03-17T00:02:07;8.71;96.34
71117;SHT31;58775;46.992;9.518;2024-03-17T00:04:08;8.82;96.34
71117;SHT31;58775;46.992;9.518;2024-03-17T00:06:09;8.86;94.92
71117;SHT31;58775;46.992;9.518;2024-03-17T00:08:10;8.65;96.30
71117;SHT31;58775;46.992;9.518;2024-03-17T00:10:11;8.44;97.39
71117;SHT31;58775;46.992;9.518;2024-03-17T00:12:12;8.45;98.12
71117;SHT31;58775;46.992;9.518;2024-03-17T00:14:13;8.52;97.15
71117;SHT31;58775;46.992;9.518;2024-03-17T00:16:14;8.65;96.72
71117;SHT31;58775;46.992;9.518;2024-03-17T00:18:17;8.60;96.34
71117;SHT31;58775;46.992;9.518;2024-03-17T00:20:19;8.62;96.21
71117;SHT31;58775;46.992;9.518;2024-03-17T00:22:20;8.68;96.29
71117;SHT31;58775;46.992;9.518;2024-03-17T00:24:21;8.64;96.66
71117;SHT31;58775;46.992;9.518;2024-03-17T00:26:22;8.51;97.14
71117;SHT31;58775;46.992;9.518;2024-03-17T00:28:23;8.41;97.76
71117;SHT31;58775;46.992;9.518;2024-03-17T00:30:25;8.48;97.39
71117;SHT31;58775;46.992;9.518;2024-03-17T00:32:26;8.48;97.45
71117;SHT31;58775;46.992;9.518;2024-03-17T00:34:27;8.48;97.75
71117;SHT31;58775;46.992;9.518;2024-03-17T00:36:28;8.55;97.00
71117;SHT31;58775;46.992;9.518;2024-03-17T00:38:29;8.65;96.97
71117;SHT31;58775;46.992;9.518;2024-03-17T00:40:30;8.71;95.52
71117;SHT31;58775;46.992;9.518;2024-03-17T00:42:32;8.74;95.69
71117;SHT31;58775;46.992;9.518;2024-03-17T00:44:33;8.65;96.27
71117;SHT31;58775;46.992;9.518;2024-03-17T00:46:34;8.52;95.26
71117;SHT31;58775;46.992;9.518;2024-03-17T00:48:35;8.29;96.88
71117;SHT31;58775;46.992;9.518;2024-03-17T00:50:35;8.26;97.43
71117;SHT31;58775;46.992;9.518;2024-03-17T00:52:36;8.24;96.99
71117;SHT31;58775;46.992;9.518;2024-03-17T00:54:37;8.33;96.52
71117;SHT31;58775;46.992;9.518;2024-03-17T00:56:38;8.40;96.18
71117;SHT31;58775;46.992;9.518;2024-03-17T00:58:39;8.37;95.13
71117;SHT31;58775;46.992;9.518;2024-03-17T01:00:40;8.17;96.17
71117;SHT31;58775;46.992;9.518;2024-03-17T01:02:41;8.11;96.55
71117;SHT31;58775;46.992;9.518;2024-03-17T01:04:43;8.00;96.45
71117;SHT31;58775;46.992;9.518;2024-03-17T01:06:44;7.97;96.74
71117;SHT31;58775;46.992;9.518;2024-03-17T01:08:45;7.89;96.56
71117;SHT31;58775;46.992;9.518;2024-03-17T01:10:47;7.96;96.97
71117;SHT31;58775;46.992;9.518;2024-03-17T01:12:50;7.99;95.03
71117;SHT31;58775;46.992;9.518;2024-03-17T01:14:51;7.94;96.17
71117;SHT31;58775;46.992;9.518;2024-03-17T01:16:51;7.89;96.32
71117;SHT31;58775;46.992;9.518;2024-03-17T01:18:52;7.87;95.92
71117;SHT31;58775;46.992;9.518;2024-03-17T01:20:53;7.76;96.01
71117;SHT31;58775;46.992;9.518;2024-03-17T01:22:54;7.69;96.86
71117;SHT31;58775;46.992;9.518;2024-03-17T01:24:55;7.79;96.46
71117;SHT31;58775;46.992;9.518;2024-03-17T01:26:55;7.85;96.08
71117;SHT31;58775;46.992;9.518;2024-03-17T01:28:56;7.85;95.93
71117;SHT31;58775;46.992;9.518;2024-03-17T01:30:57;7.76;95.92
71117;SHT31;58775;46.992;9.518;2024-03-17T01:32:58;7.75;96.04
71117;SHT31;58775;46.992;9.518;2024-03-17T01:35:02;7.65;95.89
71117;SHT31;58775;46.992;9.518;2024-03-17T01:37:03;7.59;96.31
71117;SHT31;58775;46.992;9.518;2024-03-17T01:39:04;7.56;96.26
71117;SHT31;58775;46.992;9.518;2024-03-17T01:41:06;7.51;96.67
71117;SHT31;58775;46.992;9.518;2024-03-17T01:43:10;7.62;96.35
71117;SHT31;58775;46.992;9.518;2024-03-17T01:45:31;7.55;95.49
71117;SHT31;58775;46.992;9.518;2024-03-17T01:47:32;7.49;96.10
71117;SHT31;58775;46.992;9.518;2024-03-17T01:49:33;7.47;95.52
71117;SHT31;58775;46.992;9.518;2024-03-17T01:51:35;7.56;95.01
71117;SHT31;58775;46.992;9.518;2024-03-17T01:53:37;7.54;95.02
71117;SHT31;58775;46.992;9.518;2024-03-17T01:55:40;7.52;94.96
71117;SHT31;58775;46.992;9.518;2024-03-17T01:57:41;7.44;95.05
71117;SHT31;58775;46.992;9.518;2024-03-17T01:59:42;7.42;95.65
71117;SHT31;58775;46.992;9.518;2024-03-17T02:01:46;7.45;94.92
71117;SHT31;58775;46.992;9.518;2024-03-17T02:03:47;7.41;94.85
71117;SHT31;58775;46.992;9.518;2024-03-17T02:05:48;7.38;95.51
71117;SHT31;58775;46.992;9.518;2024-03-17T02:07:49;7.28;95.08
71117;SHT31;58775;46.992;9.518;2024-03-17T02:09:50;7.25;95.74
71117;SHT31;58775;46.992;9.518;2024-03-17T02:11:51;7.24;95.51
71117;SHT31;58775;46.992;9.518;2024-03-17T02:13:53;7.12;95.79
71117;SHT31;58775;46.992;9.518;2024-03-17T02:15:54;7.03;95.91
71117;SHT31;58775;46.992;9.518;2024-03-17T02:17:55;7.04;95.99
71117;SHT31;58775;46.992;9.518;2024-03-17T02:19:56;7.11;95.79
71117;SHT31;58775;46.992;9.518;2024-03-17T02:21:57;7.15;95.70
71117;SHT31;58775;46.992;9.518;2024-03-17T02:23:58;7.21;95.36
71117;SHT31;58775;46.992;9.518;2024-03-17T02:25:59;7.14;95.74
71117;SHT31;58775;46.992;9.518;2024-03-17T02:28:00;7.15;95.55
71117;SHT31;58775;46.992;9.518;2024-03-17T02:30:04;7.07;95.95
71117;SHT31;58775;46.992;9.518;2024-03-17T02:32:09;7.03;96.00
71117;SHT31;58775;46.992;9.518;2024-03-17T02:34:10;6.96;95.87
71117;SHT31;58775;46.992;9.518;2024-03-17T02:36:11;6.93;96.73
71117;SHT31;58775;46.992;9.518;2024-03-17T02:38:15;6.86;96.25
71117;SHT31;58775;46.992;9.518;2024-03-17T02:40:36;6.93;96.14
71117;SHT31;58775;46.992;9.518;2024-03-17T02:42:37;6.98;95.86
71117;SHT31;58775;46.992;9.518;2024-03-17T02:44:45;6.98;95.67
71117;SHT31;58775;46.992;9.518;2024-03-17T02:46:46;6.73;95.82
71117;SHT31;58775;46.992;9.518;2024-03-17T02:48:51;6.77;96.16
71117;SHT31;58775;46.992;9.518;2024-03-17T02:50:51;6.63;96.41
71117;SHT31;58775;46.992;9.518;2024-03-17T02:52:52;6.72;95.78
71117;SHT31;58775;46.992;9.518;2024-03-17T02:54:53;6.70;95.68
71117;SHT31;58775;46.992;9.518;2024-03-17T02:56:54;6.69;96.30
71117;SHT31;58775;46.992;9.518;2024-03-17T02:58:55;6.77;95.61
71117;SHT31;58775;46.992;9.518;2024-03-17T03:00:56;6.66;96.15
71117;SHT31;58775;46.992;9.518;2024-03-17T03:02:57;6.66;96.31
71117;SHT31;58775;46.992;9.518;2024-03-17T03:04:58;6.53;96.26
71117;SHT31;58775;46.992;9.518;2024-03-17T03:06:59;6.56;96.79
71117;SHT31;58775;46.992;9.518;2024-03-17T03:08:59;6.50;97.69
71117;SHT31;58775;46.992;9.518;2024-03-17T03:11:00;6.53;97.22
71117;SHT31;58775;46.992;9.518;2024-03-17T03:13:01;6.54;97.13
71117;SHT31;58775;46.992;9.518;2024-03-17T03:15:02;6.60;96.50
71117;SHT31;58775;46.992;9.518;2024-03-17T03:17:03;6.66;96.48
71117;SHT31;58775;46.992;9.518;2024-03-17T03:19:04;6.87;95.13
71117;SHT31;58775;46.992;9.518;2024-03-17T03:21:05;6.96;94.66
71117;SHT31;58775;46.992;9.518;2024-03-17T03:23:07;7.07;94.36
71117;SHT31;58775;46.992;9.518;2024-03-17T03:25:07;7.27;92.67
71117;SHT31;58775;46.992;9.518;2024-03-17T03:27:08;7.27;93.11
71117;SHT31;58775;46.992;9.518;2024-03-17T03:29:10;7.45;91.69
71117;SHT31;58775;46.992;9.518;2024-03-17T03:31:11;7.47;91.75
71117;SHT31;58775;46.992;9.518;2024-03-17T03:33:15;7.62;90.70
71117;SHT31;58775;46.992;9.518;2024-03-17T03:35:17;7.69;90.24
71117;SHT31;58775;46.992;9.518;2024-03-17T03:37:17;7.83;89.62
71117;SHT31;58775;46.992;9.518;2024-03-17T03:39:18;7.86;89.21
71117;SHT31;58775;46.992;9.518;2024-03-17T03:41:22;7.99;88.43
71117;SHT31;58775;46.992;9.518;2024-03-17T03:43:23;8.07;87.73
71117;SHT31;58775;46.992;9.518;2024-03-17T03:45:24;8.10;87.81
71117;SHT31;58775;46.992;9.518;2024-03-17T03:47:26;8.17;87.63
71117;SHT31;58775;46.992;9.518;2024-03-17T03:49:27;8.26;87.19
71117;SHT31;58775;46.992;9.518;2024-03-17T03:51:27;8.38;86.68
71117;SHT31;58775;46.992;9.518;2024-03-17T03:53:28;8.44;85.56
71117;SHT31;58775;46.992;9.518;2024-03-17T03:55:29;8.40;85.96
71117;SHT31;58775;46.992;9.518;2024-03-17T03:57:30;8.47;85.39
71117;SHT31;58775;46.992;9.518;2024-03-17T03:59:32;8.48;85.85
71117;SHT31;58775;46.992;9.518;2024-03-17T04:01:33;8.48;85.85
71117;SHT31;58775;46.992;9.518;2024-03-17T04:03:34;8.37;86.41
71117;SHT31;58775;46.992;9.518;2024-03-17T04:05:35;8.27;86.96
71117;SHT31;58775;46.992;9.518;2024-03-17T04:07:36;8.19;87.03
71117;SHT31;58775;46.992;9.518;2024-03-17T04:09:38;8.30;86.01
71117;SHT31;58775;46.992;9.518;2024-03-17T04:11:39;8.24;86.57
71117;SHT31;58775;46.992;9.518;2024-03-17T04:13:40;8.30;85.83
71117;SHT31;58775;46.992;9.518;2024-03-17T04:15:41;8.31;85.85
71117;SHT31;58775;46.992;9.518;2024-03-17T04:17:42;8.27;85.89
71117;SHT31;58775;46.992;9.518;2024-03-17T04:19:43;8.23;86.08
71117;SHT31;58775;46.992;9.518;2024-03-17T04:21:43;8.19;86.04
71117;SHT31;58775;46.992;9.518;2024-03-17T04:23:44;8.09;86.78
71117;SHT31;58775;46.992;9.518;2024-03-17T04:25:45;8.03;87.84
71117;SHT31;58775;46.992;9.518;2024-03-17T04:27:46;7.90;87.69
71117;SHT31;58775;46.992;9.518;2024-03-17T04:29:47;7.86;87.55
71117;SHT31;58775;46.992;9.518;2024-03-17T04:31:50;7.78;87.98
71117;SHT31;58775;46.992;9.518;2024-03-17T04:33:51;7.65;88.48
71117;SHT31;58775;46.992;9.518;2024-03-17T04:35:52;7.55;89.68
71117;SHT31;58775;46.992;9.518;2024-03-17T04:37:53;7.51;90.26
71117;SHT31;58775;46.992;9.518;2024-03-17T04:39:54;7.49;88.78
71117;SHT31;58775;46.992;9.518;2024-03-17T04:42:02;7.59;87.94
71117;SHT31;58775;46.992;9.518;2024-03-17T04:44:04;7.61;87.76
71117;SHT31;58775;46.992;9.518;2024-03-17T04:46:07;7.52;88.27
71117;SHT31;58775;46.992;9.518;2024-03-17T04:48:10;7.58;87.75
71117;SHT31;58775;46.992;9.518;2024-03-17T04:50:11;7.49;88.31
71117;SHT31;58775;46.992;9.518;2024-03-17T04:52:13;7.49;88.26
71117;SHT31;58775;46.992;9.518;2024-03-17T04:54:17;7.48;88.00
71117;SHT31;58775;46.992;9.518;2024-03-17T04:56:18;7.41;88.31
71117;SHT31;58775;46.992;9.518;2024-03-17T04:58:19;7.48;87.94
71117;SHT31;58775;46.992;9.518;2024-03-17T05:00:20;7.47;87.78
71117;SHT31;58775;46.992;9.518;2024-03-17T05:02:22;7.42;88.17
71117;SHT31;58775;46.992;9.518;2024-03-17T05:04:23;7.61;86.67
71117;SHT31;58775;46.992;9.518;2024-03-17T05:06:24;7.65;86.45
71117;SHT31;58775;46.992;9.518;2024-03-17T05:08:25;7.63;86.92
71117;SHT31;58775;46.992;9.518;2024-03-17T05:10:26;7.66;86.38
71117;SHT31;58775;46.992;9.518;2024-03-17T05:12:27;7.85;85.39
71117;SHT31;58775;46.992;9.518;2024-03-17T05:14:28;8.00;84.08
71117;SHT31;58775;46.992;9.518;2024-03-17T05:16:29;8.10;83.93
71117;SHT31;58775;46.992;9.518;2024-03-17T05:18:30;8.07;84.19
71117;SHT31;58775;46.992;9.518;2024-03-17T05:20:33;8.07;84.88
71117;SHT31;58775;46.992;9.518;2024-03-17T05:22:34;8.04;84.18
71117;SHT31;58775;46.992;9.518;2024-03-17T05:24:35;8.00;84.22
71117;SHT31;58775;46.992;9.518;2024-03-17T05:26:35;7.93;84.57
71117;SHT31;58775;46.992;9.518;2024-03-17T05:28:36;7.92;84.48
71117;SHT31;58775;46.992;9.518;2024-03-17T05:30:37;7.90;84.74
71117;SHT31;58775;46.992;9.518;2024-03-17T05:32:38;7.85;84.90
71117;SHT31;58775;46.992;9.518;2024-03-17T05:34:38;7.82;84.73
71117;SHT31;58775;46.992;9.518;2024-03-17T05:36:39;7.66;85.52
71117;SHT31;58775;46.992;9.518;2024-03-17T05:38:40;7.72;85.02
71117;SHT31;58775;46.992;9.518;2024-03-17T05:40:41;7.76;85.00
71117;SHT31;58775;46.992;9.518;2024-03-17T05:42:42;7.86;84.49
71117;SHT31;58775;46.992;9.518;2024-03-17T05:44:46;7.89;84.12
71117;SHT31;58775;46.992;9.518;2024-03-17T05:46:53;7.86;84.18
71117;SHT31;58775;46.992;9.518;2024-03-17T05:48:56;7.93;83.89
71117;SHT31;58775;46.992;9.518;2024-03-17T05:50:57;7.83;84.73
71117;SHT31;58775;46.992;9.518;2024-03-17T05:52:58;7.83;84.41
71117;SHT31;58775;46.992;9.518;2024-03-17T05:54:59;7.76;84.47
71117;SHT31;58775;46.992;9.518;2024-03-17T05:56:59;7.82;84.44
71117;SHT31;58775;46.992;9.518;2024-03-17T05:59:01;7.78;84.38
71117;SHT31;58775;46.992;9.518;2024-03-17T06:01:02;7.72;85.09
71117;SHT31;58775;46.992;9.518;2024-03-17T06:03:04;7.58;86.15
71117;SHT31;58775;46.992;9.518;2024-03-17T06:05:21;7.54;86.33
71117;SHT31;58775;46.992;9.518;2024-03-17T06:07:31;7.58;85.60
71117;SHT31;58775;46.992;9.518;2024-03-17T06:09:35;7.62;85.32
71117;SHT31;58775;46.992;9.518;2024-03-17T06:11:39;7.66;85.03
71117;SHT31;58775;46.992;9.518;2024-03-17T06:13:46;7.68;84.97
71117;SHT31;58775;46.992;9.518;2024-03-17T06:15:55;7.65;85.29
71117;SHT31;58775;46.992;9.518;2024-03-17T06:18:00;7.80;84.40
71117;SHT31;58775;46.992;9.518;2024-03-17T06:20:07;7.94;84.02
71117;SHT31;58775;46.992;9.518;2024-03-17T06:22:14;8.16;83.28
71117;SHT31;58775;46.992;9.518;2024-03-17T06:24:14;8.38;82.39
71117;SHT31;58775;46.992;9.518;2024-03-17T06:26:18;8.50;82.27
71117;SHT31;58775;46.992;9.518;2024-03-17T06:31:26;8.74;80.82
71117;SHT31;58775;46.992;9.518;2024-03-17T06:33:47;8.81;80.66
71117;SHT31;58775;46.992;9.518;2024-03-17T06:36:16;8.75;81.19
71117;SHT31;58775;46.992;9.518;2024-03-17T06:39:14;8.89;81.23
71117;SHT31;58775;46.992;9.518;2024-03-17T06:41:26;8.96;80.96
71117;SHT31;58775;46.992;9.518;2024-03-17T06:43:28;9.23;80.94
71117;SHT31;58775;46.992;9.518;2024-03-17T06:45:29;9.32;80.58
71117;SHT31;58775;46.992;9.518;2024-03-17T06:47:30;9.26;80.14
71117;SHT31;58775;46.992;9.518;2024-03-17T06:49:31;9.64;80.16
71117;SHT31;58775;46.992;9.518;2024-03-17T06:51:32;9.95;79.27
71117;SHT31;58775;46.992;9.518;2024-03-17T06:53:33;10.04;79.41
71117;SHT31;58775;46.992;9.518;2024-03-17T06:55:42;10.52;76.11
71117;SHT31;58775;46.992;9.518;2024-03-17T06:57:43;10.80;75.43
71117;SHT31;58775;46.992;9.518;2024-03-17T07:06:23;11.67;73.77
71117;SHT31;58775;46.992;9.518;2024-03-17T07:09:27;11.96;71.44
71117;SHT31;58775;46.992;9.518;2024-03-17T07:11:57;11.96;71.69
71117;SHT31;58775;46.992;9.518;2024-03-17T07:14:21;11.96;73.37
71117;SHT31;58775;46.992;9.518;2024-03-17T07:16:22;11.86;73.80
71117;SHT31;58775;46.992;9.518;2024-03-17T07:18:29;12.26;72.40
71117;SHT31;58775;46.992;9.518;2024-03-17T07:20:33;12.41;70.22
71117;SHT31;58775;46.992;9.518;2024-03-17T07:22:34;12.47;69.25
71117;SHT31;58775;46.992;9.518;2024-03-17T07:24:35;12.87;68.79
71117;SHT31;58775;46.992;9.518;2024-03-17T07:26:36;12.61;69.51
71117;SHT31;58775;46.992;9.518;2024-03-17T07:28:38;12.34;71.38
71117;SHT31;58775;46.992;9.518;2024-03-17T07:30:50;12.49;68.96
71117;SHT31;58775;46.992;9.518;2024-03-17T07:32:51;12.63;67.69
71117;SHT31;58775;46.992;9.518;2024-03-17T07:34:55;11.93;71.44
71117;SHT31;58775;46.992;9.518;2024-03-17T07:37:30;12.06;69.04
71117;SHT31;58775;46.992;9.518;2024-03-17T07:39:47;12.25;68.63
71117;SHT31;58775;46.992;9.518;2024-03-17T07:41:53;12.22;69.62
71117;SHT31;58775;46.992;9.518;2024-03-17T07:43:56;11.98;68.99
71117;SHT31;58775;46.992;9.518;2024-03-17T11:54:01;16.05;59.10
71117;SHT31;58775;46.992;9.518;2024-03-17T12:01:03;15.32;61.33
71117;SHT31;58775;46.992;9.518;2024-03-17T12:14:21;15.97;65.23
71117;SHT31;58775;46.992;9.518;2024-03-17T12:17:04;16.28;63.34
71117;SHT31;58775;46.992;9.518;2024-03-17T12:19:07;16.15;63.34
71117;SHT31;58775;46.992;9.518;2024-03-17T12:21:17;16.47;63.30
71117;SHT31;58775;46.992;9.518;2024-03-17T12:23:43;16.69;62.92
71117;SHT31;58775;46.992;9.518;2024-03-17T12:25:46;16.80;62.50
71117;SHT31;58775;46.992;9.518;2024-03-17T12:27:51;16.65;62.41
71117;SHT31;58775;46.992;9.518;2024-03-17T12:30:11;16.81;61.26
71117;SHT31;58775;46.992;9.518;2024-03-17T12:32:17;16.26;61.75
71117;SHT31;58775;46.992;9.518;2024-03-17T12:34:23;16.58;62.14
71117;SHT31;58775;46.992;9.518;2024-03-17T12:48:20;15.61;62.77
71117;SHT31;58775;46.992;9.518;2024-03-17T14:39:28;14.00;68.99
71117;SHT31;58775;46.992;9.518;2024-03-17T14:52:40;14.23;69.89
71117;SHT31;58775;46.992;9.518;2024-03-17T14:54:50;14.33;69.25
71117;SHT31;58775;46.992;9.518;2024-03-17T14:56:56;14.13;69.14
71117;SHT31;58775;46.992;9.518;2024-03-17T14:58:57;14.09;68.12
71117;SHT31;58775;46.992;9.518;2024-03-17T15:01:01;14.07;68.32
71117;SHT31;58775;46.992;9.518;2024-03-17T15:06:01;14.09;69.18
71117;SHT31;58775;46.992;9.518;2024-03-17T15:11:22;14.00;70.85
71117;SHT31;58775;46.992;9.518;2024-03-17T15:13:26;13.94;70.96
71117;SHT31;58775;46.992;9.518;2024-03-17T15:15:40;13.89;70.59
71117;SHT31;58775;46.992;9.518;2024-03-17T15:27:31;13.80;73.74
71117;SHT31;58775;46.992;9.518;2024-03-17T15:33:10;13.34;77.96
71117;SHT31;58775;46.992;9.518;2024-03-17T15:35:21;13.32;78.04
71117;SHT31;58775;46.992;9.518;2024-03-17T15:37:30;13.26;78.17
71117;SHT31;58775;46.992;9.518;2024-03-17T15:40:04;13.14;78.27
71117;SHT31;58775;46.992;9.518;2024-03-17T15:42:59;12.98;80.01
71117;SHT31;58775;46.992;9.518;2024-03-17T15:45:45;13.31;79.19
71117;SHT31;58775;46.992;9.518;2024-03-17T15:48:14;13.22;80.29
71117;SHT31;58775;46.992;9.518;2024-03-17T15:50:37;13.14;80.35
71117;SHT31;58775;46.992;9.518;2024-03-17T15:52:58;12.98;82.47
71117;SHT31;58775;46.992;9.518;2024-03-17T15:55:20;12.95;82.08
71117;SHT31;58775;46.992;9.518;2024-03-17T15:58:48;12.85;79.72
71117;SHT31;58775;46.992;9.518;2024-03-17T16:13:26;12.59;83.93
71117;SHT31;58775;46.992;9.518;2024-03-17T16:15:39;12.54;83.22
71117;SHT31;58775;46.992;9.518;2024-03-17T16:22:49;12.06;86.35
71117;SHT31;58775;46.992;9.518;2024-03-17T16:24:53;11.99;86.00
71117;SHT31;58775;46.992;9.518;2024-03-17T16:26:54;11.95;85.55
71117;SHT31;58775;46.992;9.518;2024-03-17T16:28:55;11.96;84.41
71117;SHT31;58775;46.992;9.518;2024-03-17T16:30:56;12.03;82.76
71117;SHT31;58775;46.992;9.518;2024-03-17T16:32:58;11.95;85.67
71117;SHT31;58775;46.992;9.518;2024-03-17T16:34:59;11.78;85.39
71117;SHT31;58775;46.992;9.518;2024-03-17T16:37:00;11.81;84.60
71117;SHT31;58775;46.992;9.518;2024-03-17T16:39:01;11.89;84.02
71117;SHT31;58775;46.992;9.518;2024-03-17T16:41:12;11.86;85.70
71117;SHT31;58775;46.992;9.518;2024-03-17T16:43:23;11.78;84.63
71117;SHT31;58775;46.992;9.518;2024-03-17T16:45:34;11.81;84.42
71117;SHT31;58775;46.992;9.518;2024-03-17T18:07:56;11.26;75.88
71117;SHT31;58775;46.992;9.518;2024-03-17T18:09:57;11.40;74.70
